sensor_id;sensor_type;location;lat;lon;timestamp;P1;durP1;ratioP1;P2;durP2;ratioP2
43554;SDS011;35085;40.398;-3.702;2022-07-23T00:05:27;7.72;;;3.60;;
43554;SDS011;35085;40.398;-3.702;2022-07-23T00:15:56;6.20;;;3.10;;
43554;SDS011;35085;40.398;-3.702;2022-07-23T00:26:05;7.97;;;3.72;;
43554;SDS011;35085;40.398;-3.702;2022-07-23T00:36:35;5.72;;;2.95;;
43554;SDS011;35085;40.398;-3.702;2022-07-23T00:46:48;7.60;;;3.10;;
43554;SDS011;35085;40.398;-3.702;2022-07-23T00:57:17;9.32;;;3.63;;
43554;SDS011;35085;40.398;-3.702;2022-07-23T01:07:26;5.57;;;2.72;;
43554;SDS011;35085;40.398;-3.702;2022-07-23T01:17:56;11.38;;;3.30;;
43554;SDS011;35085;40.398;-3.702;2022-07-23T01:38:39;6.47;;;3.25;;
43554;SDS011;35085;40.398;-3.702;2022-07-23T01:48:54;6.25;;;2.92;;
43554;SDS011;35085;40.398;-3.702;2022-07-23T01:59:54;8.07;;;3.00;;
43554;SDS011;35085;40.398;-3.702;2022-07-23T02:10:06;9.27;;;3.25;;
43554;SDS011;35085;40.398;-3.702;2022-07-23T02:20:37;7.03;;;2.72;;
43554;SDS011;35085;40.398;-3.702;2022-07-23T02:30:48;18.03;;;3.43;;
43554;SDS011;35085;40.398;-3.702;2022-07-23T02:41:18;6.03;;;3.03;;
43554;SDS011;35085;40.398;-3.702;2022-07-23T02:51:29;5.93;;;3.45;;
43554;SDS011;35085;40.398;-3.702;2022-07-23T03:02:00;8.10;;;3.33;;
43554;SDS011;35085;40.398;-3.702;2022-07-23T03:12:09;8.13;;;3.08;;
43554;SDS011;35085;40.398;-3.702;2022-07-23T03:22:39;6.97;;;2.90;;
43554;SDS011;35085;40.398;-3.702;2022-07-23T03:32:48;7.57;;;3.15;;
43554;SDS011;35085;40.398;-3.702;2022-07-23T03:43:19;5.45;;;2.72;;
43554;SDS011;35085;40.398;-3.702;2022-07-23T03:53:28;9.23;;;3.53;;
43554;SDS011;35085;40.398;-3.702;2022-07-23T04:03:59;8.13;;;3.38;;
43554;SDS011;35085;40.398;-3.702;2022-07-23T04:14:09;8.60;;;3.22;;
43554;SDS011;35085;40.398;-3.702;2022-07-23T04:24:39;5.88;;;3.15;;
43554;SDS011;35085;40.398;-3.702;2022-07-23T04:34:48;5.72;;;3.15;;
43554;SDS011;35085;40.398;-3.702;2022-07-23T04:45:20;8.77;;;3.63;;
43554;SDS011;35085;40.398;-3.702;2022-07-23T04:55:31;8.93;;;3.50;;
43554;SDS011;35085;40.398;-3.702;2022-07-23T05:06:01;8.40;;;3.33;;
43554;SDS011;35085;40.398;-3.702;2022-07-23T05:16:11;7.18;;;3.40;;
43554;SDS011;35085;40.398;-3.702;2022-07-23T05:26:46;6.57;;;4.25;;
43554;SDS011;35085;40.398;-3.702;2022-07-23T05:36:55;7.75;;;3.97;;
43554;SDS011;35085;40.398;-3.702;2022-07-23T05:47:25;14.98;;;4.35;;
43554;SDS011;35085;40.398;-3.702;2022-07-23T05:57:40;6.80;;;3.45;;
43554;SDS011;35085;40.398;-3.702;2022-07-23T06:08:10;7.75;;;4.22;;
43554;SDS011;35085;40.398;-3.702;2022-07-23T06:18:20;8.45;;;3.67;;
43554;SDS011;35085;40.398;-3.702;2022-07-23T06:28:50;8.73;;;4.20;;
43554;SDS011;35085;40.398;-3.702;2022-07-23T06:38:59;7.68;;;4.10;;
43554;SDS011;35085;40.398;-3.702;2022-07-23T06:49:31;7.97;;;3.40;;
43554;SDS011;35085;40.398;-3.702;2022-07-23T06:59:40;8.95;;;3.28;;
43554;SDS011;35085;40.398;-3.702;2022-07-23T07:10:08;11.30;;;3.70;;
43554;SDS011;35085;40.398;-3.702;2022-07-23T07:20:18;6.20;;;3.40;;
43554;SDS011;35085;40.398;-3.702;2022-07-23T07:30:47;10.70;;;5.75;;
43554;SDS011;35085;40.398;-3.702;2022-07-23T07:40:56;10.10;;;3.53;;
43554;SDS011;35085;40.398;-3.702;2022-07-23T07:51:27;9.50;;;3.03;;
43554;SDS011;35085;40.398;-3.702;2022-07-23T08:01:36;9.35;;;3.55;;
43554;SDS011;35085;40.398;-3.702;2022-07-23T08:12:05;12.60;;;7.40;;
43554;SDS011;35085;40.398;-3.702;2022-07-23T08:22:14;10.00;;;3.30;;
43554;SDS011;35085;40.398;-3.702;2022-07-23T08:32:58;11.77;;;4.50;;
43554;SDS011;35085;40.398;-3.702;2022-07-23T08:43:14;6.22;;;3.17;;
43554;SDS011;35085;40.398;-3.702;2022-07-23T08:53:45;11.45;;;3.38;;
43554;SDS011;35085;40.398;-3.702;2022-07-23T09:03:54;11.50;;;3.00;;
43554;SDS011;35085;40.398;-3.702;2022-07-23T09:14:41;7.22;;;3.72;;
43554;SDS011;35085;40.398;-3.702;2022-07-23T09:35:47;9.13;;;2.85;;
43554;SDS011;35085;40.398;-3.702;2022-07-23T09:46:16;6.72;;;2.85;;
43554;SDS011;35085;40.398;-3.702;2022-07-23T09:56:45;9.27;;;3.28;;
43554;SDS011;35085;40.398;-3.702;2022-07-23T10:06:57;7.82;;;3.22;;
43554;SDS011;35085;40.398;-3.702;2022-07-23T10:17:45;8.77;;;3.40;;
43554;SDS011;35085;40.398;-3.702;2022-07-23T10:27:58;10.60;;;6.22;;
43554;SDS011;35085;40.398;-3.702;2022-07-23T10:48:44;7.53;;;3.38;;
43554;SDS011;35085;40.398;-3.702;2022-07-23T10:59:13;7.00;;;2.60;;
43554;SDS011;35085;40.398;-3.702;2022-07-23T11:20:25;7.55;;;2.45;;
43554;SDS011;35085;40.398;-3.702;2022-07-23T11:41:03;4.60;;;1.85;;
43554;SDS011;35085;40.398;-3.702;2022-07-23T11:51:21;4.20;;;1.88;;
43554;SDS011;35085;40.398;-3.702;2022-07-23T12:01:56;8.95;;;2.72;;
43554;SDS011;35085;40.398;-3.702;2022-07-23T12:12:05;5.40;;;2.30;;
43554;SDS011;35085;40.398;-3.702;2022-07-23T12:22:36;5.30;;;2.35;;
43554;SDS011;35085;40.398;-3.702;2022-07-23T12:32:45;5.47;;;2.20;;
43554;SDS011;35085;40.398;-3.702;2022-07-23T12:43:30;3.38;;;1.80;;
43554;SDS011;35085;40.398;-3.702;2022-07-23T12:53:40;4.57;;;1.73;;
43554;SDS011;35085;40.398;-3.702;2022-07-23T13:04:11;6.07;;;1.85;;
43554;SDS011;35085;40.398;-3.702;2022-07-23T13:14:20;4.05;;;1.60;;
43554;SDS011;35085;40.398;-3.702;2022-07-23T13:24:50;11.38;;;2.00;;
43554;SDS011;35085;40.398;-3.702;2022-07-23T13:34:59;5.97;;;1.42;;
43554;SDS011;35085;40.398;-3.702;2022-07-23T13:45:29;3.78;;;1.80;;
43554;SDS011;35085;40.398;-3.702;2022-07-23T13:55:38;5.43;;;1.90;;
43554;SDS011;35085;40.398;-3.702;2022-07-23T14:06:08;3.33;;;1.20;;
43554;SDS011;35085;40.398;-3.702;2022-07-23T14:16:17;4.60;;;1.38;;
43554;SDS011;35085;40.398;-3.702;2022-07-23T14:26:46;3.67;;;1.10;;
43554;SDS011;35085;40.398;-3.702;2022-07-23T14:36:59;3.72;;;1.42;;
43554;SDS011;35085;40.398;-3.702;2022-07-23T14:47:29;2.03;;;1.10;;
43554;SDS011;35085;40.398;-3.702;2022-07-23T14:57:37;5.50;;;1.43;;
43554;SDS011;35085;40.398;-3.702;2022-07-23T15:08:07;2.17;;;1.10;;
43554;SDS011;35085;40.398;-3.702;2022-07-23T15:18:16;2.50;;;1.50;;
43554;SDS011;35085;40.398;-3.702;2022-07-23T15:28:44;3.08;;;1.10;;
43554;SDS011;35085;40.398;-3.702;2022-07-23T15:38:53;2.67;;;1.10;;
43554;SDS011;35085;40.398;-3.702;2022-07-23T15:49:21;2.28;;;1.55;;
43554;SDS011;35085;40.398;-3.702;2022-07-23T15:59:31;1.63;;;1.15;;
43554;SDS011;35085;40.398;-3.702;2022-07-23T16:09:59;1.38;;;0.90;;
43554;SDS011;35085;40.398;-3.702;2022-07-23T16:20:15;2.03;;;1.23;;
43554;SDS011;35085;40.398;-3.702;2022-07-23T16:30:45;2.22;;;1.80;;
43554;SDS011;35085;40.398;-3.702;2022-07-23T16:40:54;2.63;;;1.75;;
43554;SDS011;35085;40.398;-3.702;2022-07-23T16:51:24;1.70;;;1.23;;
43554;SDS011;35085;40.398;-3.702;2022-07-23T17:01:33;2.72;;;2.00;;
43554;SDS011;35085;40.398;-3.702;2022-07-23T17:12:03;2.53;;;1.38;;
43554;SDS011;35085;40.398;-3.702;2022-07-23T17:32:42;1.67;;;1.33;;
43554;SDS011;35085;40.398;-3.702;2022-07-23T17:42:51;2.15;;;1.88;;
43554;SDS011;35085;40.398;-3.702;2022-07-23T17:53:22;2.92;;;1.85;;
43554;SDS011;35085;40.398;-3.702;2022-07-23T18:03:32;3.08;;;1.52;;
43554;SDS011;35085;40.398;-3.702;2022-07-23T18:14:07;2.92;;;1.50;;
43554;SDS011;35085;40.398;-3.702;2022-07-23T18:24:15;2.33;;;1.30;;
43554;SDS011;35085;40.398;-3.702;2022-07-23T18:34:46;4.28;;;1.75;;
43554;SDS011;35085;40.398;-3.702;2022-07-23T18:44:55;2.45;;;1.70;;
43554;SDS011;35085;40.398;-3.702;2022-07-23T18:55:25;3.83;;;2.20;;
43554;SDS011;35085;40.398;-3.702;2022-07-23T19:05:33;3.60;;;2.55;;
43554;SDS011;35085;40.398;-3.702;2022-07-23T19:16:03;4.07;;;2.85;;
43554;SDS011;35085;40.398;-3.702;2022-07-23T19:26:12;4.10;;;1.90;;
43554;SDS011;35085;40.398;-3.702;2022-07-23T19:36:43;6.60;;;3.78;;
43554;SDS011;35085;40.398;-3.702;2022-07-23T19:46:51;5.55;;;2.45;;
43554;SDS011;35085;40.398;-3.702;2022-07-23T19:57:22;4.90;;;2.70;;
43554;SDS011;35085;40.398;-3.702;2022-07-23T20:07:31;6.77;;;3.50;;
43554;SDS011;35085;40.398;-3.702;2022-07-23T20:18:01;7.22;;;3.72;;
43554;SDS011;35085;40.398;-3.702;2022-07-23T20:28:10;5.63;;;3.30;;
43554;SDS011;35085;40.398;-3.702;2022-07-23T20:38:42;10.35;;;5.55;;
43554;SDS011;35085;40.398;-3.702;2022-07-23T20:48:50;7.85;;;4.90;;
43554;SDS011;35085;40.398;-3.702;2022-07-23T20:59:21;5.95;;;3.08;;
43554;SDS011;35085;40.398;-3.702;2022-07-23T21:09:29;8.55;;;3.38;;
43554;SDS011;35085;40.398;-3.702;2022-07-23T21:19:57;9.68;;;6.25;;
43554;SDS011;35085;40.398;-3.702;2022-07-23T21:30:07;7.82;;;3.30;;
43554;SDS011;35085;40.398;-3.702;2022-07-23T21:40:38;5.70;;;3.88;;
43554;SDS011;35085;40.398;-3.702;2022-07-23T21:50:46;8.10;;;5.18;;
43554;SDS011;35085;40.398;-3.702;2022-07-23T22:01:16;12.13;;;6.75;;
43554;SDS011;35085;40.398;-3.702;2022-07-23T22:11:25;9.70;;;6.38;;
43554;SDS011;35085;40.398;-3.702;2022-07-23T22:21:54;5.75;;;4.00;;
43554;SDS011;35085;40.398;-3.702;2022-07-23T22:32:02;5.60;;;2.90;;
43554;SDS011;35085;40.398;-3.702;2022-07-23T22:42:32;5.05;;;3.25;;
43554;SDS011;35085;40.398;-3.702;2022-07-23T22:52:40;8.55;;;3.38;;
43554;SDS011;35085;40.398;-3.702;2022-07-23T23:03:10;9.35;;;3.65;;
43554;SDS011;35085;40.398;-3.702;2022-07-23T23:13:18;9.57;;;3.40;;
43554;SDS011;35085;40.398;-3.702;2022-07-23T23:23:47;6.93;;;3.33;;
43554;SDS011;35085;40.398;-3.702;2022-07-23T23:33:57;14.32;;;4.20;;
43554;SDS011;35085;40.398;-3.702;2022-07-23T23:44:26;6.00;;;3.50;;
43554;SDS011;35085;40.398;-3.702;2022-07-23T23:54:35;5.20;;;2.78;;
